createdAt,value
2023-03-28T00:02:05.400Z,101236.19
2023-03-28T00:04:31.818Z,101239.13
2023-03-28T00:06:58.216Z,101242.28
2023-03-28T00:09:25.740Z,101245.47
2023-03-28T00:11:52.240Z,101236.78
2023-03-28T00:14:18.652Z,101239.56
2023-03-28T00:16:47.751Z,101240.84
2023-03-28T00:19:17.249Z,101254.25
2023-03-28T00:21:47.189Z,101248.09
2023-03-28T00:24:15.867Z,101256.56
2023-03-28T00:26:44.015Z,101254.84
2023-03-28T00:29:21.147Z,101262.53
2023-03-28T00:31:49.533Z,101260.75
2023-03-28T00:34:16.498Z,101256.56
2023-03-28T00:36:43.060Z,101268.06
2023-03-28T00:39:10.504Z,101267.19
2023-03-28T00:41:40.283Z,101274.84
2023-03-28T00:44:44.616Z,101272.94
2023-03-28T00:47:38.853Z,101281.63
2023-03-28T00:50:11.241Z,101282.50
2023-03-28T00:52:43.830Z,101289.72
2023-03-28T00:55:17.069Z,101286.13
2023-03-28T00:57:46.053Z,101286.94
2023-03-28T01:00:13.294Z,101297.75
2023-03-28T01:02:43.106Z,101294.16
2023-03-28T01:05:12.493Z,101298.84
2023-03-28T01:07:46.014Z,101300.34
2023-03-28T01:10:17.651Z,101304.38
2023-03-28T01:12:44.128Z,101313.06
2023-03-28T01:15:11.473Z,101307.56
2023-03-28T01:17:48.217Z,101318.56
2023-03-28T01:20:26.643Z,101315.38
2023-03-28T01:23:14.411Z,101311.78
2023-03-28T01:25:56.836Z,101316.84
2023-03-28T01:29:05.574Z,101324.28
2023-03-28T01:31:54.070Z,101319.81
2023-03-28T01:35:14.246Z,101334.69
2023-03-28T01:37:58.289Z,101335.09
2023-03-28T01:40:40.939Z,101331.09
2023-03-28T01:43:20.300Z,101339.34
2023-03-28T01:45:56.382Z,101350.81
2023-03-28T01:48:38.047Z,101360.78
2023-03-28T01:51:07.995Z,101361.22
2023-03-28T01:53:47.488Z,101349.72
2023-03-28T01:56:30.542Z,101343.81
2023-03-28T01:59:11.291Z,101354.84
2023-03-28T02:02:09.959Z,101371.63
2023-03-28T02:04:38.728Z,101362.09
2023-03-28T02:07:08.852Z,101365.31
2023-03-28T02:09:43.089Z,101380.13
2023-03-28T02:12:26.890Z,101374.84
2023-03-28T02:15:13.775Z,101383.56
2023-03-28T02:18:11.091Z,101384.19
2023-03-28T02:21:02.096Z,101388.63
2023-03-28T02:23:48.433Z,101392.69
2023-03-28T02:26:41.533Z,101390.34
2023-03-28T02:29:18.884Z,101400.09
2023-03-28T02:32:06.868Z,101408.19
2023-03-28T02:34:33.314Z,101395.44
2023-03-28T02:37:14.572Z,101406.47
2023-03-28T02:39:59.430Z,101404.38
2023-03-28T02:42:54.832Z,101408.63
2023-03-28T02:45:52.579Z,101411.56
2023-03-28T02:48:30.924Z,101414.75
2023-03-28T02:51:16.271Z,101419.66
2023-03-28T02:53:58.197Z,101418.19
2023-03-28T02:56:52.962Z,101426.03
2023-03-28T02:59:55.385Z,101433.44
2023-03-28T03:02:22.769Z,101417.53
2023-03-28T03:04:50.558Z,101440.47
2023-03-28T03:07:20.218Z,101450.22
2023-03-28T03:09:46.649Z,101443.00
2023-03-28T03:12:13.846Z,101450.19
2023-03-28T03:14:40.334Z,101459.78
2023-03-28T03:17:29.688Z,101460.19
2023-03-28T03:19:56.193Z,101462.13
2023-03-28T03:22:23.456Z,101463.59
2023-03-28T03:24:51.539Z,101465.06
2023-03-28T03:27:19.222Z,101472.31
2023-03-28T03:29:46.465Z,101470.16
2023-03-28T03:32:15.513Z,101479.31
2023-03-28T03:34:47.622Z,101477.38
2023-03-28T03:37:14.461Z,101475.66
2023-03-28T03:39:40.892Z,101476.09
2023-03-28T03:42:07.317Z,101487.31
2023-03-28T03:44:33.725Z,101491.78
2023-03-28T03:47:00.616Z,101493.88
2023-03-28T03:49:28.342Z,101494.94
2023-03-28T03:51:55.331Z,101500.06
2023-03-28T03:54:21.876Z,101504.50
2023-03-28T03:56:49.208Z,101506.19
2023-03-28T03:59:16.419Z,101507.50
2023-03-28T04:01:44.836Z,101511.09
2023-03-28T04:04:31.299Z,101511.69
2023-03-28T04:07:06.622Z,101513.63
2023-03-28T04:09:34.331Z,101521.25
2023-03-28T04:12:03.706Z,101521.59
2023-03-28T04:14:31.697Z,101529.50
2023-03-28T04:17:21.314Z,101536.03
2023-03-28T04:19:49.621Z,101546.41
2023-03-28T04:22:18.258Z,101538.56
2023-03-28T04:24:53.502Z,101548.75
2023-03-28T04:27:34.215Z,101553.97
2023-03-28T04:30:01.664Z,101554.63
2023-03-28T04:32:54.350Z,101559.88
2023-03-28T04:35:24.427Z,101570.50
2023-03-28T04:37:53.758Z,101571.22
2023-03-28T04:40:21.646Z,101577.56
2023-03-28T04:42:57.839Z,101581.66
2023-03-28T04:45:35.441Z,101595.78
2023-03-28T04:48:14.423Z,101595.72
2023-03-28T04:50:41.125Z,101604.03
2023-03-28T04:53:07.720Z,101608.06
2023-03-28T04:55:36.007Z,101608.50
2023-03-28T04:58:15.969Z,101618.97
2023-03-28T05:00:42.821Z,101618.44
2023-03-28T05:03:33.044Z,101622.28
2023-03-28T05:06:03.125Z,101625.00
2023-03-28T05:08:29.733Z,101631.72
2023-03-28T05:10:56.189Z,101633.53
2023-03-28T05:13:23.216Z,101638.03
2023-03-28T05:16:06.925Z,101647.81
2023-03-28T05:18:53.752Z,101652.34
2023-03-28T05:21:28.052Z,101658.34
2023-03-28T05:23:54.470Z,101662.28
2023-03-28T05:26:23.902Z,101678.22
2023-03-28T05:28:51.137Z,101673.19
2023-03-28T05:31:17.652Z,101678.53
2023-03-28T05:33:48.976Z,101678.53
2023-03-28T05:36:24.469Z,101684.97
2023-03-28T05:38:51.813Z,101689.94
2023-03-28T05:45:37.973Z,101693.22
2023-03-28T05:48:18.529Z,101701.94
2023-03-28T05:50:45.146Z,101692.75
2023-03-28T05:53:11.588Z,101705.81
2023-03-28T05:55:38.956Z,101704.53
2023-03-28T05:58:06.359Z,101715.22
2023-03-28T06:00:37.810Z,101716.81
2023-03-28T06:03:04.574Z,101722.28
2023-03-28T06:05:35.837Z,101722.25
2023-03-28T06:08:09.167Z,101720.94
2023-03-28T06:10:36.587Z,101718.91
2023-03-28T06:13:15.015Z,101723.09
2023-03-28T06:15:43.806Z,101729.50
2023-03-28T06:18:10.520Z,101727.97
2023-03-28T06:20:43.556Z,101726.53
2023-03-28T06:23:10.140Z,101732.91
2023-03-28T06:25:36.572Z,101736.31
2023-03-28T06:28:03.255Z,101730.91
2023-03-28T06:30:30.813Z,101740.63
2023-03-28T06:32:58.346Z,101748.94
2023-03-28T06:35:24.764Z,101746.88
2023-03-28T06:37:51.228Z,101746.59
2023-03-28T06:40:25.001Z,101749.66
2023-03-28T06:42:51.772Z,101752.91
2023-03-28T06:45:41.927Z,101755.63
2023-03-28T06:48:12.348Z,101768.22
2023-03-28T06:51:16.707Z,101771.41
2023-03-28T06:53:45.202Z,101773.56
2023-03-28T06:56:13.120Z,101780.13
2023-03-28T06:58:39.599Z,101780.78
2023-03-28T07:01:10.185Z,101791.63
2023-03-28T07:03:46.227Z,101783.75
2023-03-28T07:06:18.564Z,101790.13
2023-03-28T07:08:45.641Z,101792.03
2023-03-28T07:11:13.060Z,101795.63
2023-03-28T07:13:41.321Z,101798.00
2023-03-28T07:16:15.331Z,101792.69
2023-03-28T07:18:43.342Z,101800.91
2023-03-28T07:21:15.896Z,101801.47
2023-03-28T07:23:42.882Z,101810.09
2023-03-28T07:26:12.461Z,101798.78
2023-03-28T07:28:39.141Z,101810.53
2023-03-28T07:31:05.982Z,101809.25
2023-03-28T07:33:37.641Z,101809.78
2023-03-28T07:36:13.686Z,101819.19
2023-03-28T07:38:41.979Z,101818.03
2023-03-28T07:41:08.889Z,101819.69
2023-03-28T07:43:35.994Z,101817.59
2023-03-28T07:46:13.952Z,101822.84
2023-03-28T07:48:41.155Z,101830.13
2023-03-28T07:51:09.679Z,101821.66
2023-03-28T07:53:40.123Z,101832.66
2023-03-28T07:56:11.873Z,101837.50
2023-03-28T07:58:54.964Z,101835.78
2023-03-28T08:01:22.767Z,101844.31
2023-03-28T08:03:53.206Z,101842.59
2023-03-28T08:06:31.149Z,101843.97
2023-03-28T08:09:00.530Z,101851.19
2023-03-28T08:11:39.099Z,101847.69
2023-03-28T08:14:09.195Z,101859.75
2023-03-28T08:16:35.987Z,101851.06
2023-03-28T08:19:10.741Z,101859.34
2023-03-28T08:21:54.876Z,101852.41
2023-03-28T08:24:32.907Z,101862.91
2023-03-28T08:27:09.013Z,101851.41
2023-03-28T08:29:35.516Z,101868.13
2023-03-28T08:32:03.949Z,101862.97
2023-03-28T08:34:30.714Z,101860.22
2023-03-28T08:36:59.892Z,101867.16
2023-03-28T08:39:27.482Z,101865.63
2023-03-28T08:42:14.939Z,101864.78
2023-03-28T08:45:04.773Z,101862.00
2023-03-28T08:47:33.148Z,101868.78
2023-03-28T08:50:06.968Z,101868.66
2023-03-28T08:52:34.341Z,101873.88
2023-03-28T08:55:22.470Z,101872.53
2023-03-28T08:57:53.126Z,101882.00
2023-03-28T09:00:27.501Z,101879.75
2023-03-28T09:02:55.069Z,101876.03
2023-03-28T09:05:52.573Z,101886.78
2023-03-28T09:08:27.628Z,101888.91
2023-03-28T09:11:11.151Z,101900.81
2023-03-28T09:14:09.824Z,101904.78
2023-03-28T09:16:59.652Z,101895.31
2023-03-28T09:20:11.129Z,101902.06
2023-03-28T09:23:12.765Z,101896.00
2023-03-28T09:26:23.478Z,101910.63
2023-03-28T09:29:02.215Z,101913.19
2023-03-28T09:31:37.628Z,101908.81
2023-03-28T09:34:07.083Z,101902.47
2023-03-28T09:36:49.039Z,101908.00
2023-03-28T09:39:40.221Z,101922.44
2023-03-28T09:42:13.981Z,101920.94
2023-03-28T09:45:02.957Z,101928.75
2023-03-28T09:47:49.935Z,101927.38
2023-03-28T09:50:20.456Z,101931.34
2023-03-28T09:52:51.656Z,101917.28
2023-03-28T09:55:24.155Z,101933.16
2023-03-28T09:58:20.950Z,101932.88
2023-03-28T10:01:36.298Z,101940.69
2023-03-28T10:04:29.649Z,101925.84
2023-03-28T10:07:16.552Z,101927.13
2023-03-28T10:09:54.115Z,101935.41
2023-03-28T10:12:32.291Z,101935.47
2023-03-28T10:14:58.919Z,101942.06
2023-03-28T10:17:51.505Z,101942.53
2023-03-28T10:20:24.001Z,101936.69
2023-03-28T10:22:56.582Z,101942.50
2023-03-28T10:25:45.325Z,101937.50
2023-03-28T10:28:17.777Z,101933.38
2023-03-28T10:30:53.518Z,101939.25
2023-03-28T10:33:25.641Z,101941.97
2023-03-28T10:36:25.473Z,101933.00
2023-03-28T10:38:52.688Z,101938.88
2023-03-28T10:41:29.645Z,101940.69
2023-03-28T10:44:25.077Z,101926.00
2023-03-28T10:46:59.381Z,101948.75
2023-03-28T10:49:45.808Z,101941.56
2023-03-28T10:52:30.965Z,101941.34
2023-03-28T10:55:13.708Z,101948.97
2023-03-28T10:58:30.753Z,101947.91
2023-03-28T11:01:13.479Z,101951.03
2023-03-28T11:04:08.886Z,101943.03
2023-03-28T11:06:46.269Z,101939.72
2023-03-28T11:09:46.801Z,101959.06
2023-03-28T11:13:02.735Z,101944.41
2023-03-28T11:15:47.773Z,101938.38
2023-03-28T11:18:35.575Z,101950.84
2023-03-28T11:21:21.616Z,101963.38
2023-03-28T11:24:15.877Z,101953.47
2023-03-28T11:27:15.993Z,101954.13
2023-03-28T11:30:09.871Z,101967.84
2023-03-28T11:32:57.454Z,101960.63
2023-03-28T11:35:37.770Z,101957.66
2023-03-28T11:38:14.720Z,101953.00
2023-03-28T11:40:53.870Z,101955.44
2023-03-28T11:43:45.417Z,101954.69
2023-03-28T11:46:19.232Z,101949.28
2023-03-28T11:49:09.122Z,101966.97
2023-03-28T11:51:45.586Z,101961.13
2023-03-28T11:54:24.180Z,101953.47
2023-03-28T11:57:06.872Z,101952.19
2023-03-28T12:00:32.134Z,101955.66
2023-03-28T12:03:19.558Z,101943.25
2023-03-28T12:06:02.788Z,101941.63
2023-03-28T12:08:37.547Z,101946.50
2023-03-28T12:11:07.405Z,101947.06
2023-03-28T12:14:08.702Z,101946.72
2023-03-28T12:16:42.321Z,101936.91
2023-03-28T12:19:14.844Z,101938.94
2023-03-28T12:21:51.562Z,101945.03
2023-03-28T12:25:06.157Z,101950.09
2023-03-28T12:27:55.779Z,101954.69
2023-03-28T12:30:33.958Z,101947.34
2023-03-28T12:33:24.101Z,101944.41
2023-03-28T12:36:18.066Z,101936.97
2023-03-28T12:38:57.811Z,101938.09
2023-03-28T12:41:34.389Z,101944.00
2023-03-28T12:44:08.217Z,101947.13
2023-03-28T12:46:55.319Z,101937.09
2023-03-28T12:49:45.487Z,101934.50
2023-03-28T12:52:28.827Z,101934.84
2023-03-28T12:55:02.223Z,101930.59
2023-03-28T12:57:46.396Z,101953.09
2023-03-28T13:00:39.756Z,101940.34
2023-03-28T13:03:51.777Z,101935.25
2023-03-28T13:07:05.296Z,101929.91
2023-03-28T13:09:39.090Z,101930.88
2023-03-28T13:12:22.735Z,101934.06
2023-03-28T13:15:02.589Z,101935.84
2023-03-28T13:17:32.410Z,101931.44
2023-03-28T13:20:17.503Z,101941.84
2023-03-28T13:22:47.166Z,101941.63
2023-03-28T13:25:21.064Z,101932.72
2023-03-28T13:27:49.701Z,101935.88
2023-03-28T13:30:17.359Z,101932.88
2023-03-28T13:32:50.952Z,101927.22
2023-03-28T13:35:49.697Z,101912.78
2023-03-28T13:38:23.998Z,101918.13
2023-03-28T13:40:56.408Z,101922.13
2023-03-28T13:43:34.989Z,101923.06
2023-03-28T13:46:24.943Z,101924.31
2023-03-28T13:49:00.788Z,101925.13
2023-03-28T13:51:31.797Z,101925.94
2023-03-28T13:53:58.175Z,101917.38
2023-03-28T13:56:35.662Z,101920.38
2023-03-28T13:59:08.027Z,101915.97
2023-03-28T14:01:42.070Z,101919.06
2023-03-28T14:04:23.935Z,101916.63
2023-03-28T14:06:51.294Z,101915.66
2023-03-28T14:09:27.651Z,101920.22
2023-03-28T14:12:14.263Z,101919.78
2023-03-28T14:14:44.226Z,101917.91
2023-03-28T14:17:17.340Z,101927.44
2023-03-28T14:19:54.929Z,101915.03
2023-03-28T14:22:25.963Z,101915.41
2023-03-28T14:24:57.406Z,101910.22
2023-03-28T14:27:45.375Z,101915.13
2023-03-28T14:30:22.504Z,101908.63
2023-03-28T14:32:58.762Z,101905.13
2023-03-28T14:35:31.555Z,101903.28
2023-03-28T14:38:00.923Z,101900.13
2023-03-28T14:40:29.168Z,101904.38
2023-03-28T14:43:01.398Z,101903.63
2023-03-28T14:45:29.327Z,101901.31
2023-03-28T14:47:57.228Z,101912.16
2023-03-28T14:50:29.347Z,101911.41
2023-03-28T14:53:01.069Z,101912.19
2023-03-28T14:55:28.126Z,101910.13
2023-03-28T14:57:55.816Z,101909.91
2023-03-28T15:00:28.485Z,101908.91
2023-03-28T15:02:55.747Z,101901.19
2023-03-28T15:05:23.181Z,101920.44
2023-03-28T15:08:02.127Z,101901.19
2023-03-28T15:10:29.344Z,101911.91
2023-03-28T15:13:18.339Z,101898.44
2023-03-28T15:15:47.181Z,101902.88
2023-03-28T15:18:17.556Z,101895.72
2023-03-28T15:20:49.314Z,101896.06
2023-03-28T15:23:26.991Z,101897.50
2023-03-28T15:25:54.163Z,101889.53
2023-03-28T15:28:20.596Z,101886.81
2023-03-28T15:30:47.638Z,101885.94
2023-03-28T15:33:18.621Z,101885.94
2023-03-28T15:35:45.246Z,101886.66
2023-03-28T15:38:19.349Z,101889.94
2023-03-28T15:40:51.268Z,101881.81
2023-03-28T15:43:27.048Z,101883.84
2023-03-28T15:45:58.082Z,101881.06
2023-03-28T15:48:25.179Z,101876.59
2023-03-28T15:50:54.112Z,101878.44
2023-03-28T15:53:21.981Z,101883.00
2023-03-28T15:55:49.851Z,101881.03
2023-03-28T15:58:19.321Z,101884.97
2023-03-28T16:00:52.597Z,101881.94
2023-03-28T16:03:25.047Z,101884.94
2023-03-28T16:06:09.806Z,101886.28
2023-03-28T16:08:41.466Z,101879.56
2023-03-28T16:11:17.254Z,101880.53
2023-03-28T16:14:20.533Z,101880.16
2023-03-28T16:17:11.294Z,101878.72
2023-03-28T16:19:53.037Z,101887.00
2023-03-28T16:22:21.116Z,101883.72
2023-03-28T16:24:51.894Z,101885.13
2023-03-28T16:27:19.452Z,101887.31
2023-03-28T16:29:46.365Z,101883.28
2023-03-28T16:32:15.069Z,101882.00
2023-03-28T16:34:43.128Z,101881.81
2023-03-28T16:37:11.437Z,101880.88
2023-03-28T16:39:38.290Z,101886.63
2023-03-28T16:42:06.110Z,101881.00
2023-03-28T16:44:32.821Z,101890.41
2023-03-28T16:47:00.171Z,101884.06
2023-03-28T16:49:26.943Z,101885.31
2023-03-28T16:51:54.745Z,101879.84
2023-03-28T16:54:22.049Z,101879.25
2023-03-28T16:56:48.517Z,101867.25
2023-03-28T16:59:15.303Z,101874.03
2023-03-28T17:01:43.018Z,101878.53
2023-03-28T17:04:09.878Z,101874.91
2023-03-28T17:06:36.494Z,101877.47
2023-03-28T17:09:04.575Z,101877.31
2023-03-28T17:11:31.540Z,101874.31
2023-03-28T17:13:57.974Z,101863.75
2023-03-28T17:16:24.883Z,101866.41
2023-03-28T17:18:51.712Z,101865.72
2023-03-28T17:21:18.558Z,101880.16
2023-03-28T17:23:47.865Z,101864.47
2023-03-28T17:26:15.532Z,101869.09
2023-03-28T17:28:43.412Z,101862.19
2023-03-28T17:31:12.745Z,101865.47
2023-03-28T17:33:39.229Z,101864.47
2023-03-28T17:36:21.037Z,101864.13
2023-03-28T17:38:50.156Z,101860.44
2023-03-28T17:41:17.413Z,101862.13
2023-03-28T17:43:44.410Z,101858.50
2023-03-28T17:46:11.952Z,101862.47
2023-03-28T17:48:39.532Z,101863.22
2023-03-28T17:51:07.441Z,101861.97
2023-03-28T17:53:33.902Z,101871.13
2023-03-28T17:56:00.744Z,101868.22
2023-03-28T17:58:27.720Z,101876.53
2023-03-28T18:00:54.329Z,101870.56
2023-03-28T18:03:21.533Z,101867.56
2023-03-28T18:06:01.154Z,101867.19
2023-03-28T18:08:28.696Z,101864.72
2023-03-28T18:11:00.763Z,101866.63
2023-03-28T18:13:27.154Z,101860.66
2023-03-28T18:15:53.601Z,101862.81
2023-03-28T18:18:20.075Z,101874.50
2023-03-28T18:20:46.537Z,101867.63
2023-03-28T18:23:12.965Z,101869.78
2023-03-28T18:25:39.627Z,101873.72
2023-03-28T18:28:06.547Z,101875.97
2023-03-28T18:30:33.911Z,101870.47
2023-03-28T18:33:00.699Z,101876.75
2023-03-28T18:35:27.661Z,101884.47
2023-03-28T18:37:54.062Z,101874.34
2023-03-28T18:40:20.464Z,101878.22
2023-03-28T18:42:46.851Z,101871.72
2023-03-28T18:45:13.296Z,101873.75
2023-03-28T18:47:41.070Z,101872.72
2023-03-28T18:50:10.592Z,101868.69
2023-03-28T18:52:37.495Z,101876.09
2023-03-28T18:55:05.075Z,101875.47
2023-03-28T18:57:31.473Z,101873.16
2023-03-28T18:59:58.525Z,101875.56
2023-03-28T19:02:26.449Z,101877.13
2023-03-28T19:04:52.992Z,101871.16
2023-03-28T19:07:19.418Z,101872.16
2023-03-28T19:09:45.804Z,101874.28
2023-03-28T19:12:12.695Z,101866.19
2023-03-28T19:14:39.212Z,101871.78
2023-03-28T19:17:06.115Z,101872.47
2023-03-28T19:19:37.527Z,101869.94
2023-03-28T19:22:05.745Z,101865.22
2023-03-28T19:24:33.055Z,101872.25
2023-03-28T19:27:00.474Z,101874.44
2023-03-28T19:29:28.584Z,101877.81
2023-03-28T19:31:54.979Z,101877.81
2023-03-28T19:34:21.545Z,101869.81
2023-03-28T19:36:47.945Z,101876.78
2023-03-28T19:39:14.793Z,101873.63
2023-03-28T19:41:41.589Z,101872.78
2023-03-28T19:44:07.990Z,101880.06
2023-03-28T19:46:36.356Z,101878.19
2023-03-28T19:49:06.334Z,101866.47
2023-03-28T19:51:33.838Z,101870.06
2023-03-28T19:54:00.287Z,101862.78
2023-03-28T19:56:26.968Z,101864.13
2023-03-28T19:58:53.362Z,101860.50
2023-03-28T20:01:20.413Z,101864.59
2023-03-28T20:03:49.434Z,101863.75
2023-03-28T20:06:16.871Z,101860.16
2023-03-28T20:08:43.725Z,101860.84
2023-03-28T20:11:12.632Z,101862.16
2023-03-28T20:13:39.723Z,101856.47
2023-03-28T20:16:08.187Z,101859.03
2023-03-28T20:18:36.178Z,101855.22
2023-03-28T20:21:05.646Z,101855.88
2023-03-28T20:23:33.126Z,101847.38
2023-03-28T20:26:01.428Z,101850.19
2023-03-28T20:28:32.465Z,101840.81
2023-03-28T20:30:58.943Z,101836.16
2023-03-28T20:33:25.985Z,101826.59
2023-03-28T20:35:58.143Z,101831.31
2023-03-28T20:38:27.767Z,101830.47
2023-03-28T20:40:54.221Z,101823.88
2023-03-28T20:43:21.156Z,101835.19
2023-03-28T20:45:54.466Z,101822.38
2023-03-28T20:48:25.972Z,101820.91
2023-03-28T20:50:53.952Z,101819.44
2023-03-28T20:53:21.781Z,101817.13
2023-03-28T20:55:48.186Z,101816.09
2023-03-28T20:58:14.635Z,101822.69
2023-03-28T21:00:41.073Z,101816.09
2023-03-28T21:03:11.195Z,101820.53
2023-03-28T21:05:41.910Z,101815.66
2023-03-28T21:08:08.347Z,101803.97
2023-03-28T21:10:36.356Z,101809.25
2023-03-28T21:13:02.750Z,101799.91
2023-03-28T21:15:30.488Z,101807.34
2023-03-28T21:17:57.002Z,101803.31
2023-03-28T21:20:23.405Z,101802.47
2023-03-28T21:22:49.853Z,101799.72
2023-03-28T21:25:16.620Z,101806.75
2023-03-28T21:27:43.101Z,101802.69
2023-03-28T21:30:11.575Z,101798.22
2023-03-28T21:32:38.043Z,101796.31
2023-03-28T21:35:05.316Z,101791.63
2023-03-28T21:37:31.874Z,101789.28
2023-03-28T21:39:58.323Z,101793.94
2023-03-28T21:42:24.861Z,101790.75
2023-03-28T21:44:51.934Z,101797.16
2023-03-28T21:47:18.364Z,101790.78
2023-03-28T21:49:45.938Z,101789.72
2023-03-28T21:52:12.730Z,101789.50
2023-03-28T21:54:39.118Z,101784.59
2023-03-28T21:57:05.752Z,101783.53
2023-03-28T21:59:32.164Z,101783.31
2023-03-28T22:01:58.791Z,101784.38
2023-03-28T22:04:25.190Z,101783.13
2023-03-28T22:06:51.603Z,101786.31
2023-03-28T22:09:19.452Z,101785.47
2023-03-28T22:11:45.853Z,101785.88
2023-03-28T22:14:12.803Z,101782.91
2023-03-28T22:16:39.670Z,101784.19
2023-03-28T22:19:08.664Z,101782.91
2023-03-28T22:21:36.891Z,101772.25
2023-03-28T22:24:04.278Z,101771.84
2023-03-28T22:26:30.960Z,101774.81
2023-03-28T22:28:59.387Z,101763.97
2023-03-28T22:31:26.397Z,101769.50
2023-03-28T22:33:53.961Z,101764.81
2023-03-28T22:36:20.759Z,101758.84
2023-03-28T22:38:47.217Z,101761.44
2023-03-28T22:41:13.625Z,101762.28
2023-03-28T22:43:42.596Z,101762.69
2023-03-28T22:46:12.530Z,101763.53
2023-03-28T22:48:39.141Z,101761.22
2023-03-28T22:51:11.401Z,101760.16
2023-03-28T22:53:38.761Z,101758.84
2023-03-28T22:56:06.458Z,101761.81
2023-03-28T22:58:33.795Z,101756.31
2023-03-28T23:01:00.518Z,101753.53
2023-03-28T23:03:27.549Z,101742.06
2023-03-28T23:05:55.046Z,101739.09
2023-03-28T23:08:22.180Z,101742.69
2023-03-28T23:10:48.731Z,101742.47
2023-03-28T23:13:15.318Z,101734.59
2023-03-28T23:15:41.730Z,101734.81
2023-03-28T23:18:08.490Z,101727.59
2023-03-28T23:20:35.720Z,101726.53
2023-03-28T23:23:02.123Z,101719.69
2023-03-28T23:25:28.599Z,101711.19
2023-03-28T23:27:55.010Z,101716.06
2023-03-28T23:30:21.393Z,101713.72
2023-03-28T23:32:47.981Z,101708.41
2023-03-28T23:35:14.392Z,101711.63
2023-03-28T23:37:40.797Z,101706.72
2023-03-28T23:40:12.061Z,101698.22
2023-03-28T23:42:38.473Z,101706.53
2023-03-28T23:45:05.243Z,101702.25
2023-03-28T23:47:31.737Z,101702.69
2023-03-28T23:49:58.162Z,101694.63
2023-03-28T23:52:24.568Z,101691.41
2023-03-28T23:54:50.960Z,101689.06
2023-03-28T23:57:17.412Z,101687.38
2023-03-28T23:59:43.896Z,101677.59
